Weather observations for the past three days for
St. Petersburg/Clearwater Airport
Imperial (Metric)
Date Time (edt) Wind (mph) Vis. (mi.) Weather Sky Cond. Temperature (ºF) Relative Humidity Wind Chill (°F) Heat Index (°F) Pressure Precipitation (in)
Air Dwpt 6 hour altimeter (in) sea level (mb) 1 hr 3 hr 6 hr
Max. Min.
06 08:53 NW 3 10.00 Fair CLR 84.2 78.8 84% 96 29.93 0.0
06 06:53 W 3 10.00 Fair CLR 78.8 75.2 89% 82 29.9 0.0
06 05:53 N 5 10.00 Fair CLR 78.8 77 94% 83 29.88 0.0
05 20:53 W 7 10.00 Fair CLR 84.2 75.2 74% 92 29.91 0.0
05 18:53 W 7 10.00 Fair CLR 87.8 75.2 66% 98 29.91 0.0
05 13:53 W 12 10.00 Partly Cloudy SCT037 SCT046 89.6 75.2 63% 100 29.94 0.0
05 12:53 W 9 10.00 Partly Cloudy FEW045 SCT055 91.4 75.2 59% 103 29.96 0.0
05 11:53 SW 8 10.00 Partly Cloudy SCT030 89.6 75.2 63% 100 29.98 0.0
05 10:53 Vrbl 3 10.00 Mostly Cloudy SCT030 BKN040 89.6 75.2 63% 100 29.98 0.0
05 09:53 SW 7 10.00 Fair CLR 87.8 77 70% 100 29.97 0.0
05 08:53 S 6 10.00 Fair CLR 84.2 78.8 84% 96 29.97 0.0
05 07:53 SW 7 10.00 Fair CLR 80.6 78.8 94% 88 29.96 0.0
05 05:53 Calm 10.00 A Few Clouds FEW025 80.6 78.8 94% 88 29.94 0.0
04 21:53 Calm 10.00 Fair CLR 82.4 75.2 79% 89 29.98 0.0
04 15:53 SW 14 10.00 A Few Clouds FEW033 91.4 77 63% 105 29.95 0.0
04 13:53 SW 12 10.00 Fair CLR 89.6 75.2 63% 100 29.98 0.0
04 12:53 W 9 10.00 A Few Clouds FEW037 91.4 75.2 59% 103 30 0.0
04 11:53 S 9 10.00 Mostly Cloudy SCT033 BKN040 89.6 77 67% 103 30.01 0.0
04 09:53 S 5 10.00 Fair CLR 86 78.8 79% 99 29.99 0.0
04 08:53 S 7 10.00 Partly Cloudy FEW090 SCT110 82.4 78.8 89% 92 29.98 0.0
04 07:53 S 3 10.00 Fair CLR 80.6 78.8 94% 88 29.97 0.0
04 05:53 Calm 10.00 Fair CLR 78.8 77 94% 83 29.94 0.0
03 20:53 SE 10 10.00 Partly Cloudy SCT039 SCT085 80.6 77 89% 87 29.93 0.0
03 19:53 E 7 10.00 Mostly Cloudy BKN047 BKN055 84.2 75.2 74% 92 29.94 0.0
03 18:53 N 7 10.00 Mostly Cloudy BKN024 BKN033 84.2 77 79% 94 29.92 0.0
03 15:53 SW 10 10.00 Fair CLR 84.2 75.2 74% 92 29.92 0.0
03 14:53 E 8 10.00 Fair CLR 89.6 77 67% 103 29.92 0.0
03 11:53 E 12 10.00 Partly Cloudy SCT018 84.2 77 79% 94 29.97 0.0
Date Time (edt) Wind (mph) Vis. (mi.) Weather Sky Cond. Air Dwpt Max. Min. Relative Humidity Wind Chill (°F) Heat Index (°F) altimeter (in) sea level (mb) 1 hr 3 hr 6 hr
6 hour
Temperature (ºF) Pressure Precipitation (in)